sensor_id;sensor_type;location;lat;lon;timestamp;P1;durP1;ratioP1;P2;durP2;ratioP2
23590;SDS011;11973;52.098;7.582;2022-09-12T00:00:39;19.02;;;17.02;;
23590;SDS011;11973;52.098;7.582;2022-09-12T00:03:05;18.95;;;17.20;;
23590;SDS011;11973;52.098;7.582;2022-09-12T00:05:31;18.02;;;16.33;;
23590;SDS011;11973;52.098;7.582;2022-09-12T00:07:57;18.10;;;16.10;;
23590;SDS011;11973;52.098;7.582;2022-09-12T00:10:23;17.70;;;16.10;;
23590;SDS011;11973;52.098;7.582;2022-09-12T00:12:49;18.38;;;16.60;;
23590;SDS011;11973;52.098;7.582;2022-09-12T00:15:14;17.30;;;15.60;;
23590;SDS011;11973;52.098;7.582;2022-09-12T00:17:40;17.67;;;15.88;;
23590;SDS011;11973;52.098;7.582;2022-09-12T00:20:06;17.25;;;15.88;;
23590;SDS011;11973;52.098;7.582;2022-09-12T00:22:33;17.60;;;16.00;;
23590;SDS011;11973;52.098;7.582;2022-09-12T00:25:00;17.20;;;15.63;;
23590;SDS011;11973;52.098;7.582;2022-09-12T00:27:26;15.57;;;14.15;;
23590;SDS011;11973;52.098;7.582;2022-09-12T00:29:52;17.17;;;15.68;;
23590;SDS011;11973;52.098;7.582;2022-09-12T00:32:18;17.50;;;15.93;;
23590;SDS011;11973;52.098;7.582;2022-09-12T00:34:45;18.05;;;16.35;;
23590;SDS011;11973;52.098;7.582;2022-09-12T00:37:11;17.08;;;15.38;;
23590;SDS011;11973;52.098;7.582;2022-09-12T00:39:37;18.77;;;17.00;;
23590;SDS011;11973;52.098;7.582;2022-09-12T00:42:03;18.80;;;17.00;;
23590;SDS011;11973;52.098;7.582;2022-09-12T00:46:58;18.48;;;16.45;;
23590;SDS011;11973;52.098;7.582;2022-09-12T00:49:32;17.20;;;15.70;;
23590;SDS011;11973;52.098;7.582;2022-09-12T00:52:12;18.27;;;16.58;;
23590;SDS011;11973;52.098;7.582;2022-09-12T00:54:45;17.02;;;15.57;;
23590;SDS011;11973;52.098;7.582;2022-09-12T00:57:17;16.98;;;15.43;;
23590;SDS011;11973;52.098;7.582;2022-09-12T00:59:47;16.35;;;14.85;;
23590;SDS011;11973;52.098;7.582;2022-09-12T01:02:16;16.63;;;14.93;;
23590;SDS011;11973;52.098;7.582;2022-09-12T01:04:42;16.08;;;14.63;;
23590;SDS011;11973;52.098;7.582;2022-09-12T01:07:09;15.38;;;14.07;;
23590;SDS011;11973;52.098;7.582;2022-09-12T01:09:35;15.00;;;13.65;;
23590;SDS011;11973;52.098;7.582;2022-09-12T01:12:03;14.98;;;13.77;;
23590;SDS011;11973;52.098;7.582;2022-09-12T01:14:29;15.32;;;13.90;;
23590;SDS011;11973;52.098;7.582;2022-09-12T01:16:56;15.40;;;14.00;;
23590;SDS011;11973;52.098;7.582;2022-09-12T01:45:46;14.73;;;13.40;;
23590;SDS011;11973;52.098;7.582;2022-09-12T01:48:45;14.77;;;13.57;;
23590;SDS011;11973;52.098;7.582;2022-09-12T01:54:15;14.27;;;13.10;;
23590;SDS011;11973;52.098;7.582;2022-09-12T01:56:45;14.20;;;12.98;;
23590;SDS011;11973;52.098;7.582;2022-09-12T01:59:26;14.02;;;12.88;;
23590;SDS011;11973;52.098;7.582;2022-09-12T02:01:58;12.40;;;11.50;;
23590;SDS011;11973;52.098;7.582;2022-09-12T02:05:08;12.68;;;11.82;;
23590;SDS011;11973;52.098;7.582;2022-09-12T02:08:00;11.68;;;10.88;;
23590;SDS011;11973;52.098;7.582;2022-09-12T02:10:33;10.43;;;9.88;;
23590;SDS011;11973;52.098;7.582;2022-09-12T02:13:08;10.70;;;9.93;;
23590;SDS011;11973;52.098;7.582;2022-09-12T02:15:41;9.98;;;9.38;;
23590;SDS011;11973;52.098;7.582;2022-09-12T02:18:12;9.25;;;8.88;;
23590;SDS011;11973;52.098;7.582;2022-09-12T02:20:42;9.45;;;8.90;;
23590;SDS011;11973;52.098;7.582;2022-09-12T02:23:12;9.32;;;8.93;;
23590;SDS011;11973;52.098;7.582;2022-09-12T02:25:45;10.95;;;10.15;;
23590;SDS011;11973;52.098;7.582;2022-09-12T02:28:14;11.10;;;10.30;;
23590;SDS011;11973;52.098;7.582;2022-09-12T02:30:54;12.20;;;11.20;;
23590;SDS011;11973;52.098;7.582;2022-09-12T02:36:01;13.15;;;12.05;;
23590;SDS011;11973;52.098;7.582;2022-09-12T02:38:34;12.75;;;11.73;;
23590;SDS011;11973;52.098;7.582;2022-09-12T02:41:06;13.20;;;12.13;;
23590;SDS011;11973;52.098;7.582;2022-09-12T02:43:32;14.35;;;13.05;;
23590;SDS011;11973;52.098;7.582;2022-09-12T02:45:58;15.43;;;13.93;;
23590;SDS011;11973;52.098;7.582;2022-09-12T02:48:29;14.98;;;13.45;;
23590;SDS011;11973;52.098;7.582;2022-09-12T02:50:58;13.98;;;12.80;;
23590;SDS011;11973;52.098;7.582;2022-09-12T02:53:25;14.02;;;12.73;;
23590;SDS011;11973;52.098;7.582;2022-09-12T02:55:51;14.07;;;12.88;;
23590;SDS011;11973;52.098;7.582;2022-09-12T02:58:19;15.75;;;13.38;;
23590;SDS011;11973;52.098;7.582;2022-09-12T03:07:00;13.63;;;12.50;;
23590;SDS011;11973;52.098;7.582;2022-09-12T03:23:25;14.65;;;12.95;;
23590;SDS011;11973;52.098;7.582;2022-09-12T03:26:02;14.07;;;12.60;;
23590;SDS011;11973;52.098;7.582;2022-09-12T03:28:37;14.23;;;12.85;;
23590;SDS011;11973;52.098;7.582;2022-09-12T03:31:12;15.10;;;13.73;;
23590;SDS011;11973;52.098;7.582;2022-09-12T03:33:42;14.52;;;13.13;;
23590;SDS011;11973;52.098;7.582;2022-09-12T03:36:12;15.82;;;14.32;;
23590;SDS011;11973;52.098;7.582;2022-09-12T03:38:46;17.42;;;15.57;;
23590;SDS011;11973;52.098;7.582;2022-09-12T03:41:12;18.70;;;15.57;;
23590;SDS011;11973;52.098;7.582;2022-09-12T03:43:38;18.20;;;15.93;;
23590;SDS011;11973;52.098;7.582;2022-09-12T03:46:04;17.23;;;15.43;;
23590;SDS011;11973;52.098;7.582;2022-09-12T03:48:29;14.65;;;13.20;;
23590;SDS011;11973;52.098;7.582;2022-09-12T03:50:58;15.13;;;12.77;;
23590;SDS011;11973;52.098;7.582;2022-09-12T03:53:25;12.70;;;11.60;;
23590;SDS011;11973;52.098;7.582;2022-09-12T03:55:51;14.38;;;12.75;;
23590;SDS011;11973;52.098;7.582;2022-09-12T03:58:17;20.20;;;13.52;;
23590;SDS011;11973;52.098;7.582;2022-09-12T04:00:42;16.83;;;15.02;;
23590;SDS011;11973;52.098;7.582;2022-09-12T04:03:08;19.73;;;15.68;;
23590;SDS011;11973;52.098;7.582;2022-09-12T04:05:34;19.80;;;17.27;;
23590;SDS011;11973;52.098;7.582;2022-09-12T04:08:00;21.48;;;17.77;;
23590;SDS011;11973;52.098;7.582;2022-09-12T04:10:26;22.95;;;18.63;;
23590;SDS011;11973;52.098;7.582;2022-09-12T04:12:52;25.48;;;19.88;;
23590;SDS011;11973;52.098;7.582;2022-09-12T05:17:24;44.83;;;29.02;;
23590;SDS011;11973;52.098;7.582;2022-09-12T05:19:50;40.13;;;28.73;;
23590;SDS011;11973;52.098;7.582;2022-09-12T05:22:15;41.88;;;28.42;;
23590;SDS011;11973;52.098;7.582;2022-09-12T05:24:41;40.97;;;29.02;;
23590;SDS011;11973;52.098;7.582;2022-09-12T05:27:09;40.25;;;27.77;;
23590;SDS011;11973;52.098;7.582;2022-09-12T05:29:34;47.72;;;30.05;;
23590;SDS011;11973;52.098;7.582;2022-09-12T05:32:00;44.65;;;29.77;;
23590;SDS011;11973;52.098;7.582;2022-09-12T05:34:27;47.40;;;30.35;;
23590;SDS011;11973;52.098;7.582;2022-09-12T05:36:52;50.22;;;31.10;;
23590;SDS011;11973;52.098;7.582;2022-09-12T05:39:18;56.63;;;30.60;;
23590;SDS011;11973;52.098;7.582;2022-09-12T05:41:44;56.38;;;32.50;;
23590;SDS011;11973;52.098;7.582;2022-09-12T05:44:11;52.33;;;31.35;;
23590;SDS011;11973;52.098;7.582;2022-09-12T05:46:42;51.17;;;30.77;;
23590;SDS011;11973;52.098;7.582;2022-09-12T05:49:10;50.20;;;30.42;;
23590;SDS011;11973;52.098;7.582;2022-09-12T05:51:38;48.88;;;30.33;;
23590;SDS011;11973;52.098;7.582;2022-09-12T05:54:07;53.00;;;30.20;;
23590;SDS011;11973;52.098;7.582;2022-09-12T05:56:38;54.72;;;29.90;;
23590;SDS011;11973;52.098;7.582;2022-09-12T05:59:06;46.13;;;28.25;;
23590;SDS011;11973;52.098;7.582;2022-09-12T06:01:37;51.50;;;29.38;;
23590;SDS011;11973;52.098;7.582;2022-09-12T06:04:04;48.75;;;28.05;;
23590;SDS011;11973;52.098;7.582;2022-09-12T06:06:30;45.47;;;28.70;;
23590;SDS011;11973;52.098;7.582;2022-09-12T06:09:01;45.67;;;29.23;;
23590;SDS011;11973;52.098;7.582;2022-09-12T06:11:28;45.17;;;28.27;;
23590;SDS011;11973;52.098;7.582;2022-09-12T06:14:01;44.72;;;28.50;;
23590;SDS011;11973;52.098;7.582;2022-09-12T06:16:28;44.83;;;28.48;;
23590;SDS011;11973;52.098;7.582;2022-09-12T06:19:29;43.70;;;28.23;;
23590;SDS011;11973;52.098;7.582;2022-09-12T06:21:49;44.60;;;28.70;;
23590;SDS011;11973;52.098;7.582;2022-09-12T06:24:19;42.05;;;27.40;;
23590;SDS011;11973;52.098;7.582;2022-09-12T06:26:48;39.65;;;27.13;;
23590;SDS011;11973;52.098;7.582;2022-09-12T06:29:16;42.63;;;28.23;;
23590;SDS011;11973;52.098;7.582;2022-09-12T06:31:43;38.58;;;27.15;;
23590;SDS011;11973;52.098;7.582;2022-09-12T06:34:12;36.15;;;26.15;;
23590;SDS011;11973;52.098;7.582;2022-09-12T06:36:40;36.72;;;26.40;;
23590;SDS011;11973;52.098;7.582;2022-09-12T06:39:11;35.60;;;25.90;;
23590;SDS011;11973;52.098;7.582;2022-09-12T06:41:38;35.17;;;25.25;;
23590;SDS011;11973;52.098;7.582;2022-09-12T06:44:04;38.67;;;24.55;;
23590;SDS011;11973;52.098;7.582;2022-09-12T06:46:31;30.40;;;23.10;;
23590;SDS011;11973;52.098;7.582;2022-09-12T06:48:57;31.00;;;23.90;;
23590;SDS011;11973;52.098;7.582;2022-09-12T06:51:25;29.85;;;23.25;;
23590;SDS011;11973;52.098;7.582;2022-09-12T06:53:53;27.92;;;22.85;;
23590;SDS011;11973;52.098;7.582;2022-09-12T06:56:21;30.95;;;22.65;;
23590;SDS011;11973;52.098;7.582;2022-09-12T06:58:49;30.23;;;22.08;;
23590;SDS011;11973;52.098;7.582;2022-09-12T07:01:17;26.40;;;21.20;;
23590;SDS011;11973;52.098;7.582;2022-09-12T07:03:48;27.20;;;21.95;;
23590;SDS011;11973;52.098;7.582;2022-09-12T07:06:17;26.38;;;20.73;;
23590;SDS011;11973;52.098;7.582;2022-09-12T07:08:45;21.23;;;18.92;;
23590;SDS011;11973;52.098;7.582;2022-09-12T07:13:43;20.77;;;18.58;;
23590;SDS011;11973;52.098;7.582;2022-09-12T07:16:11;20.00;;;17.70;;
23590;SDS011;11973;52.098;7.582;2022-09-12T07:18:37;20.27;;;17.15;;
23590;SDS011;11973;52.098;7.582;2022-09-12T07:21:05;19.88;;;17.70;;
23590;SDS011;11973;52.098;7.582;2022-09-12T07:23:33;20.13;;;17.20;;
23590;SDS011;11973;52.098;7.582;2022-09-12T07:25:59;19.77;;;16.77;;
23590;SDS011;11973;52.098;7.582;2022-09-12T07:28:26;18.08;;;16.27;;
23590;SDS011;11973;52.098;7.582;2022-09-12T07:30:53;19.02;;;16.77;;
23590;SDS011;11973;52.098;7.582;2022-09-12T07:33:20;18.15;;;16.25;;
23590;SDS011;11973;52.098;7.582;2022-09-12T07:35:51;20.10;;;16.80;;
23590;SDS011;11973;52.098;7.582;2022-09-12T07:38:21;17.85;;;15.95;;
23590;SDS011;11973;52.098;7.582;2022-09-12T07:40:47;17.13;;;15.43;;
23590;SDS011;11973;52.098;7.582;2022-09-12T07:43:13;16.52;;;15.02;;
23590;SDS011;11973;52.098;7.582;2022-09-12T07:45:38;16.30;;;14.70;;
23590;SDS011;11973;52.098;7.582;2022-09-12T07:48:07;16.25;;;14.68;;
23590;SDS011;11973;52.098;7.582;2022-09-12T07:50:34;16.33;;;14.57;;
23590;SDS011;11973;52.098;7.582;2022-09-12T07:53:01;16.30;;;14.57;;
23590;SDS011;11973;52.098;7.582;2022-09-12T07:55:28;15.68;;;14.15;;
23590;SDS011;11973;52.098;7.582;2022-09-12T07:57:54;15.82;;;14.43;;
23590;SDS011;11973;52.098;7.582;2022-09-12T08:00:20;16.13;;;14.43;;
23590;SDS011;11973;52.098;7.582;2022-09-12T08:02:52;16.40;;;14.60;;
23590;SDS011;11973;52.098;7.582;2022-09-12T08:05:19;15.65;;;14.05;;
23590;SDS011;11973;52.098;7.582;2022-09-12T08:07:47;15.65;;;13.27;;
23590;SDS011;11973;52.098;7.582;2022-09-12T08:10:13;13.50;;;12.35;;
23590;SDS011;11973;52.098;7.582;2022-09-12T08:12:40;15.55;;;13.80;;
23590;SDS011;11973;52.098;7.582;2022-09-12T08:15:06;13.93;;;12.65;;
23590;SDS011;11973;52.098;7.582;2022-09-12T08:17:32;13.52;;;12.32;;
23590;SDS011;11973;52.098;7.582;2022-09-12T08:19:58;13.52;;;12.25;;
23590;SDS011;11973;52.098;7.582;2022-09-12T08:22:24;13.35;;;12.15;;
23590;SDS011;11973;52.098;7.582;2022-09-12T08:24:50;12.77;;;11.57;;
23590;SDS011;11973;52.098;7.582;2022-09-12T08:27:15;13.30;;;12.07;;
23590;SDS011;11973;52.098;7.582;2022-09-12T08:29:41;13.63;;;12.27;;
23590;SDS011;11973;52.098;7.582;2022-09-12T08:32:07;13.05;;;11.70;;
23590;SDS011;11973;52.098;7.582;2022-09-12T08:34:32;13.20;;;11.93;;
23590;SDS011;11973;52.098;7.582;2022-09-12T08:36:58;12.80;;;11.27;;
23590;SDS011;11973;52.098;7.582;2022-09-12T08:39:24;13.73;;;11.70;;
23590;SDS011;11973;52.098;7.582;2022-09-12T08:42:03;12.13;;;11.02;;
23590;SDS011;11973;52.098;7.582;2022-09-12T08:57:49;11.95;;;10.85;;
23590;SDS011;11973;52.098;7.582;2022-09-12T09:00:16;11.02;;;10.13;;
23590;SDS011;11973;52.098;7.582;2022-09-12T09:02:53;11.48;;;10.35;;
23590;SDS011;11973;52.098;7.582;2022-09-12T09:16:33;10.80;;;9.68;;
23590;SDS011;11973;52.098;7.582;2022-09-12T09:19:02;11.27;;;10.13;;
23590;SDS011;11973;52.098;7.582;2022-09-12T09:24:07;10.65;;;9.82;;
23590;SDS011;11973;52.098;7.582;2022-09-12T09:29:39;11.13;;;10.23;;
23590;SDS011;11973;52.098;7.582;2022-09-12T09:32:23;10.10;;;9.30;;
23590;SDS011;11973;52.098;7.582;2022-09-12T09:34:50;11.02;;;9.90;;
23590;SDS011;11973;52.098;7.582;2022-09-12T09:37:32;10.95;;;10.02;;
23590;SDS011;11973;52.098;7.582;2022-09-12T09:45:41;10.63;;;9.63;;
23590;SDS011;11973;52.098;7.582;2022-09-12T09:50:47;10.85;;;9.85;;
23590;SDS011;11973;52.098;7.582;2022-09-12T09:55:52;10.70;;;9.80;;
23590;SDS011;11973;52.098;7.582;2022-09-12T09:58:33;11.13;;;10.13;;
23590;SDS011;11973;52.098;7.582;2022-09-12T10:01:01;11.00;;;9.90;;
23590;SDS011;11973;52.098;7.582;2022-09-12T10:03:33;10.48;;;9.68;;
23590;SDS011;11973;52.098;7.582;2022-09-12T10:06:07;11.38;;;10.18;;
23590;SDS011;11973;52.098;7.582;2022-09-12T10:08:45;21.92;;;9.52;;
23590;SDS011;11973;52.098;7.582;2022-09-12T10:11:19;10.45;;;9.55;;
23590;SDS011;11973;52.098;7.582;2022-09-12T10:16:25;10.90;;;9.82;;
23590;SDS011;11973;52.098;7.582;2022-09-12T10:18:59;11.27;;;10.27;;
23590;SDS011;11973;52.098;7.582;2022-09-12T10:21:33;10.95;;;9.82;;
23590;SDS011;11973;52.098;7.582;2022-09-12T10:26:52;10.40;;;9.50;;
23590;SDS011;11973;52.098;7.582;2022-09-12T10:29:46;11.32;;;10.23;;
23590;SDS011;11973;52.098;7.582;2022-09-12T10:32:24;13.02;;;10.05;;
23590;SDS011;11973;52.098;7.582;2022-09-12T10:34:58;10.93;;;10.02;;
23590;SDS011;11973;52.098;7.582;2022-09-12T10:37:34;11.20;;;10.07;;
23590;SDS011;11973;52.098;7.582;2022-09-12T10:40:03;11.68;;;10.45;;
23590;SDS011;11973;52.098;7.582;2022-09-12T10:45:17;10.85;;;9.85;;
23590;SDS011;11973;52.098;7.582;2022-09-12T10:50:58;9.70;;;8.73;;
23590;SDS011;11973;52.098;7.582;2022-09-12T10:53:26;12.15;;;10.30;;
23590;SDS011;11973;52.098;7.582;2022-09-12T10:56:11;11.80;;;10.70;;
23590;SDS011;11973;52.098;7.582;2022-09-12T10:58:41;13.00;;;9.48;;
23590;SDS011;11973;52.098;7.582;2022-09-12T11:06:54;12.00;;;10.40;;
23590;SDS011;11973;52.098;7.582;2022-09-12T11:12:26;11.32;;;10.15;;
23590;SDS011;11973;52.098;7.582;2022-09-12T11:38:01;5.10;;;4.90;;
23590;SDS011;11973;52.098;7.582;2022-09-12T11:46:26;4.45;;;4.35;;
23590;SDS011;11973;52.098;7.582;2022-09-12T11:51:40;4.65;;;4.53;;
23590;SDS011;11973;52.098;7.582;2022-09-12T11:54:34;4.75;;;4.55;;
23590;SDS011;11973;52.098;7.582;2022-09-12T12:02:19;3.95;;;3.85;;
23590;SDS011;11973;52.098;7.582;2022-09-12T12:07:54;3.83;;;3.63;;
23590;SDS011;11973;52.098;7.582;2022-09-12T12:12:56;4.30;;;4.20;;
23590;SDS011;11973;52.098;7.582;2022-09-12T12:15:24;4.15;;;3.83;;
23590;SDS011;11973;52.098;7.582;2022-09-12T12:20:27;3.42;;;3.22;;
23590;SDS011;11973;52.098;7.582;2022-09-12T12:22:53;3.33;;;3.30;;
23590;SDS011;11973;52.098;7.582;2022-09-12T12:28:14;3.33;;;3.20;;
23590;SDS011;11973;52.098;7.582;2022-09-12T12:31:05;3.10;;;3.00;;
23590;SDS011;11973;52.098;7.582;2022-09-12T12:38:29;3.58;;;3.45;;
23590;SDS011;11973;52.098;7.582;2022-09-12T12:43:41;2.95;;;2.95;;
23590;SDS011;11973;52.098;7.582;2022-09-12T12:46:09;3.20;;;3.10;;
23590;SDS011;11973;52.098;7.582;2022-09-12T12:49:07;3.33;;;3.00;;
23590;SDS011;11973;52.098;7.582;2022-09-12T12:54:29;3.17;;;3.17;;
23590;SDS011;11973;52.098;7.582;2022-09-12T12:57:49;3.08;;;3.08;;
23590;SDS011;11973;52.098;7.582;2022-09-12T12:59:53;3.53;;;2.95;;
23590;SDS011;11973;52.098;7.582;2022-09-12T13:02:39;3.10;;;3.00;;
23590;SDS011;11973;52.098;7.582;2022-09-12T13:05:18;3.22;;;3.22;;
23590;SDS011;11973;52.098;7.582;2022-09-12T13:07:46;3.45;;;3.28;;
23590;SDS011;11973;52.098;7.582;2022-09-12T13:10:26;3.10;;;3.00;;
23590;SDS011;11973;52.098;7.582;2022-09-12T13:12:54;3.97;;;3.88;;
23590;SDS011;11973;52.098;7.582;2022-09-12T13:18:00;2.85;;;2.85;;
23590;SDS011;11973;52.098;7.582;2022-09-12T13:20:43;3.40;;;3.15;;
23590;SDS011;11973;52.098;7.582;2022-09-12T13:23:27;3.55;;;3.45;;
23590;SDS011;11973;52.098;7.582;2022-09-12T13:25:55;3.80;;;3.70;;
23590;SDS011;11973;52.098;7.582;2022-09-12T13:28:22;3.40;;;3.15;;
23590;SDS011;11973;52.098;7.582;2022-09-12T13:30:54;3.55;;;3.50;;
23590;SDS011;11973;52.098;7.582;2022-09-12T13:41:30;3.22;;;3.22;;
23590;SDS011;11973;52.098;7.582;2022-09-12T13:44:14;3.78;;;3.53;;
23590;SDS011;11973;52.098;7.582;2022-09-12T13:46:42;3.92;;;3.60;;
23590;SDS011;11973;52.098;7.582;2022-09-12T13:51:43;3.30;;;3.17;;
23590;SDS011;11973;52.098;7.582;2022-09-12T13:54:11;3.88;;;3.67;;
23590;SDS011;11973;52.098;7.582;2022-09-12T13:56:45;3.33;;;3.25;;
23590;SDS011;11973;52.098;7.582;2022-09-12T13:59:12;3.20;;;3.20;;
23590;SDS011;11973;52.098;7.582;2022-09-12T14:01:42;3.35;;;3.10;;
23590;SDS011;11973;52.098;7.582;2022-09-12T14:04:13;3.17;;;3.13;;
23590;SDS011;11973;52.098;7.582;2022-09-12T14:07:13;3.65;;;3.33;;
23590;SDS011;11973;52.098;7.582;2022-09-12T14:09:45;2.78;;;2.78;;
23590;SDS011;11973;52.098;7.582;2022-09-12T14:12:38;3.38;;;3.03;;
23590;SDS011;11973;52.098;7.582;2022-09-12T14:15:15;2.70;;;2.70;;
23590;SDS011;11973;52.098;7.582;2022-09-12T14:17:49;3.00;;;3.00;;
23590;SDS011;11973;52.098;7.582;2022-09-12T14:20:17;3.10;;;3.00;;
23590;SDS011;11973;52.098;7.582;2022-09-12T14:22:44;2.83;;;2.72;;
23590;SDS011;11973;52.098;7.582;2022-09-12T14:25:15;3.15;;;3.05;;
23590;SDS011;11973;52.098;7.582;2022-09-12T14:27:46;2.75;;;2.75;;
23590;SDS011;11973;52.098;7.582;2022-09-12T14:30:20;2.95;;;2.95;;
23590;SDS011;11973;52.098;7.582;2022-09-12T14:38:45;2.30;;;2.30;;
23590;SDS011;11973;52.098;7.582;2022-09-12T14:41:41;2.45;;;2.40;;
23590;SDS011;11973;52.098;7.582;2022-09-12T14:44:13;2.90;;;2.75;;
23590;SDS011;11973;52.098;7.582;2022-09-12T14:46:50;2.20;;;2.20;;
23590;SDS011;11973;52.098;7.582;2022-09-12T14:49:30;2.42;;;2.33;;
23590;SDS011;11973;52.098;7.582;2022-09-12T14:52:01;2.28;;;2.20;;
23590;SDS011;11973;52.098;7.582;2022-09-12T14:56:57;2.15;;;2.15;;
23590;SDS011;11973;52.098;7.582;2022-09-12T15:04:42;4.82;;;1.80;;
23590;SDS011;11973;52.098;7.582;2022-09-12T15:13:17;2.33;;;2.33;;
23590;SDS011;11973;52.098;7.582;2022-09-12T15:15:47;1.95;;;1.85;;
23590;SDS011;11973;52.098;7.582;2022-09-12T15:18:15;2.05;;;2.00;;
23590;SDS011;11973;52.098;7.582;2022-09-12T15:20:42;2.05;;;2.00;;
23590;SDS011;11973;52.098;7.582;2022-09-12T15:23:52;1.73;;;1.73;;
23590;SDS011;11973;52.098;7.582;2022-09-12T15:26:15;3.25;;;2.35;;
23590;SDS011;11973;52.098;7.582;2022-09-12T15:28:46;2.00;;;2.00;;
23590;SDS011;11973;52.098;7.582;2022-09-12T15:31:23;2.17;;;2.17;;
23590;SDS011;11973;52.098;7.582;2022-09-12T15:33:54;1.98;;;1.98;;
23590;SDS011;11973;52.098;7.582;2022-09-12T15:36:22;2.10;;;2.10;;
23590;SDS011;11973;52.098;7.582;2022-09-12T15:38:49;2.03;;;2.03;;
23590;SDS011;11973;52.098;7.582;2022-09-12T15:41:16;2.08;;;1.98;;
23590;SDS011;11973;52.098;7.582;2022-09-12T15:43:47;2.13;;;2.08;;
23590;SDS011;11973;52.098;7.582;2022-09-12T15:46:14;2.10;;;2.00;;
23590;SDS011;11973;52.098;7.582;2022-09-12T15:48:42;2.08;;;2.08;;
23590;SDS011;11973;52.098;7.582;2022-09-12T15:51:18;1.75;;;1.75;;
23590;SDS011;11973;52.098;7.582;2022-09-12T15:53:45;2.13;;;2.13;;
23590;SDS011;11973;52.098;7.582;2022-09-12T15:56:13;1.77;;;1.77;;
23590;SDS011;11973;52.098;7.582;2022-09-12T15:58:40;3.03;;;2.20;;
23590;SDS011;11973;52.098;7.582;2022-09-12T16:01:06;1.75;;;1.75;;
23590;SDS011;11973;52.098;7.582;2022-09-12T16:03:37;2.00;;;2.00;;
23590;SDS011;11973;52.098;7.582;2022-09-12T16:06:03;2.08;;;2.08;;
23590;SDS011;11973;52.098;7.582;2022-09-12T16:08:30;1.70;;;1.70;;
23590;SDS011;11973;52.098;7.582;2022-09-12T16:10:57;1.95;;;1.95;;
23590;SDS011;11973;52.098;7.582;2022-09-12T16:13:28;1.90;;;1.90;;
23590;SDS011;11973;52.098;7.582;2022-09-12T16:15:58;2.13;;;2.13;;
23590;SDS011;11973;52.098;7.582;2022-09-12T16:18:25;2.03;;;2.03;;
23590;SDS011;11973;52.098;7.582;2022-09-12T16:20:52;1.90;;;1.80;;
23590;SDS011;11973;52.098;7.582;2022-09-12T16:23:18;2.35;;;2.25;;
23590;SDS011;11973;52.098;7.582;2022-09-12T16:25:43;2.20;;;1.98;;
23590;SDS011;11973;52.098;7.582;2022-09-12T16:28:09;1.92;;;1.77;;
23590;SDS011;11973;52.098;7.582;2022-09-12T16:30:35;2.15;;;2.10;;
23590;SDS011;11973;52.098;7.582;2022-09-12T16:33:01;2.40;;;2.20;;
23590;SDS011;11973;52.098;7.582;2022-09-12T16:35:27;2.35;;;2.35;;
23590;SDS011;11973;52.098;7.582;2022-09-12T16:37:52;2.25;;;2.22;;
23590;SDS011;11973;52.098;7.582;2022-09-12T16:40:18;2.42;;;2.28;;
23590;SDS011;11973;52.098;7.582;2022-09-12T16:42:44;2.22;;;2.20;;
23590;SDS011;11973;52.098;7.582;2022-09-12T16:45:12;2.00;;;2.00;;
23590;SDS011;11973;52.098;7.582;2022-09-12T16:47:38;2.25;;;2.20;;
23590;SDS011;11973;52.098;7.582;2022-09-12T16:50:04;1.95;;;1.95;;
23590;SDS011;11973;52.098;7.582;2022-09-12T16:52:32;2.25;;;2.15;;
23590;SDS011;11973;52.098;7.582;2022-09-12T16:54:59;2.40;;;2.30;;
23590;SDS011;11973;52.098;7.582;2022-09-12T16:57:24;1.80;;;1.80;;
23590;SDS011;11973;52.098;7.582;2022-09-12T16:59:50;2.00;;;2.00;;
23590;SDS011;11973;52.098;7.582;2022-09-12T17:02:16;2.05;;;2.05;;
23590;SDS011;11973;52.098;7.582;2022-09-12T17:04:41;2.70;;;2.20;;
23590;SDS011;11973;52.098;7.582;2022-09-12T17:07:07;2.50;;;2.50;;
23590;SDS011;11973;52.098;7.582;2022-09-12T17:09:33;2.15;;;2.15;;
23590;SDS011;11973;52.098;7.582;2022-09-12T17:11:59;2.17;;;2.17;;
23590;SDS011;11973;52.098;7.582;2022-09-12T17:14:25;2.35;;;2.25;;
23590;SDS011;11973;52.098;7.582;2022-09-12T17:16:51;2.40;;;2.30;;
23590;SDS011;11973;52.098;7.582;2022-09-12T17:19:21;2.47;;;2.38;;
23590;SDS011;11973;52.098;7.582;2022-09-12T17:21:51;2.40;;;2.40;;
23590;SDS011;11973;52.098;7.582;2022-09-12T17:24:17;2.63;;;2.53;;
23590;SDS011;11973;52.098;7.582;2022-09-12T17:26:43;2.90;;;2.70;;
23590;SDS011;11973;52.098;7.582;2022-09-12T17:29:10;2.60;;;2.53;;
23590;SDS011;11973;52.098;7.582;2022-09-12T17:31:38;2.30;;;2.30;;
23590;SDS011;11973;52.098;7.582;2022-09-12T17:34:05;2.38;;;2.35;;
23590;SDS011;11973;52.098;7.582;2022-09-12T17:36:31;2.50;;;2.50;;
23590;SDS011;11973;52.098;7.582;2022-09-12T17:38:58;2.25;;;2.20;;
23590;SDS011;11973;52.098;7.582;2022-09-12T17:41:26;2.60;;;2.40;;
23590;SDS011;11973;52.098;7.582;2022-09-12T17:43:54;2.22;;;2.22;;
23590;SDS011;11973;52.098;7.582;2022-09-12T17:46:25;2.40;;;2.40;;
23590;SDS011;11973;52.098;7.582;2022-09-12T17:48:55;2.42;;;2.30;;
23590;SDS011;11973;52.098;7.582;2022-09-12T17:51:23;2.83;;;2.72;;
23590;SDS011;11973;52.098;7.582;2022-09-12T17:54:00;3.50;;;3.13;;
23590;SDS011;11973;52.098;7.582;2022-09-12T17:56:31;3.05;;;2.83;;
23590;SDS011;11973;52.098;7.582;2022-09-12T17:58:58;3.40;;;3.30;;
23590;SDS011;11973;52.098;7.582;2022-09-12T18:01:24;3.50;;;3.15;;
23590;SDS011;11973;52.098;7.582;2022-09-12T18:04:09;2.78;;;2.78;;
23590;SDS011;11973;52.098;7.582;2022-09-12T18:06:35;3.90;;;2.75;;
23590;SDS011;11973;52.098;7.582;2022-09-12T18:09:03;3.53;;;3.42;;
23590;SDS011;11973;52.098;7.582;2022-09-12T18:11:30;3.30;;;3.20;;
23590;SDS011;11973;52.098;7.582;2022-09-12T18:13:57;3.38;;;3.28;;
23590;SDS011;11973;52.098;7.582;2022-09-12T18:16:24;3.13;;;3.13;;
23590;SDS011;11973;52.098;7.582;2022-09-12T18:18:50;3.40;;;3.40;;
23590;SDS011;11973;52.098;7.582;2022-09-12T18:21:16;3.15;;;3.05;;
23590;SDS011;11973;52.098;7.582;2022-09-12T18:23:43;3.70;;;3.70;;
23590;SDS011;11973;52.098;7.582;2022-09-12T18:26:10;5.55;;;3.63;;
23590;SDS011;11973;52.098;7.582;2022-09-12T18:28:38;4.40;;;4.10;;
23590;SDS011;11973;52.098;7.582;2022-09-12T18:31:08;4.40;;;4.15;;
23590;SDS011;11973;52.098;7.582;2022-09-12T18:33:36;4.25;;;4.15;;
23590;SDS011;11973;52.098;7.582;2022-09-12T18:36:03;4.15;;;4.05;;
23590;SDS011;11973;52.098;7.582;2022-09-12T18:38:30;4.18;;;3.80;;
23590;SDS011;11973;52.098;7.582;2022-09-12T18:41:06;4.10;;;3.97;;
23590;SDS011;11973;52.098;7.582;2022-09-12T18:43:34;3.83;;;3.65;;
23590;SDS011;11973;52.098;7.582;2022-09-12T18:46:18;3.85;;;3.70;;
23590;SDS011;11973;52.098;7.582;2022-09-12T18:48:44;4.13;;;3.97;;
23590;SDS011;11973;52.098;7.582;2022-09-12T18:51:12;4.00;;;4.00;;
23590;SDS011;11973;52.098;7.582;2022-09-12T18:53:39;4.07;;;3.90;;
23590;SDS011;11973;52.098;7.582;2022-09-12T18:56:07;4.20;;;4.00;;
23590;SDS011;11973;52.098;7.582;2022-09-12T18:58:35;4.15;;;3.95;;
23590;SDS011;11973;52.098;7.582;2022-09-12T19:01:12;4.60;;;4.50;;
23590;SDS011;11973;52.098;7.582;2022-09-12T19:03:43;3.90;;;3.90;;
23590;SDS011;11973;52.098;7.582;2022-09-12T19:06:10;4.18;;;4.07;;
23590;SDS011;11973;52.098;7.582;2022-09-12T19:08:39;4.40;;;4.20;;
23590;SDS011;11973;52.098;7.582;2022-09-12T19:11:05;4.07;;;3.97;;
23590;SDS011;11973;52.098;7.582;2022-09-12T19:13:39;4.30;;;4.20;;
23590;SDS011;11973;52.098;7.582;2022-09-12T19:16:07;4.00;;;3.90;;
23590;SDS011;11973;52.098;7.582;2022-09-12T19:18:35;4.03;;;4.03;;
23590;SDS011;11973;52.098;7.582;2022-09-12T19:21:01;4.03;;;3.95;;